Time;durP1;ratioP1;P1;durP2;ratioP2;P2;SDS_P1;SDS_P2;PMS_P1;PMS_P2;Temp;Humidity;BMP_temperature;BMP_pressure;BME280_temperature;BME280_humidity;BME280_pressure;Samples;Min_cycle;Max_cycle;Signal;HPM_P1;HPM_P2
2021/09/02 00:03:47;;;;;;;1.25;0.95;;;;;;;15.14;71.96;93367.56;4833914;29;20076;-94
2021/09/02 00:07:13;;;;;;;1.67;1.08;;;;;;;14.70;71.68;93311.69;4816482;29;20038;-94
2021/09/02 00:10:50;;;;;;;1.58;1.15;;;;;;;14.88;71.78;93336.41;4842958;29;20088;-94
2021/09/02 00:14:07;;;;;;;1.83;0.95;;;;;;;15.04;71.59;93363.28;4828122;29;20044;-94
2021/09/02 00:17:18;;;;;;;1.38;0.90;;;;;;;14.63;71.83;93305.22;4814497;29;20514;-95
2021/09/02 00:20:51;;;;;;;;;;;;;;;;;;;;;
2021/09/02 00:23:57;;;;;;;1.98;1.40;;;;;;;14.63;72.05;93295.44;4841223;29;20064;-94
2021/09/02 00:27:09;;;;;;;;;;;;;;;;;;;;;
2021/09/02 00:41:55;;;;;;;;;;;;;;;;;;;;;
2021/09/02 00:48:24;;;;;;;2.50;1.23;;;;;;;14.91;72.10;93342.94;4730756;30;20044;-94
2021/09/02 00:51:33;;;;;;;3.70;1.20;;;;;;;14.59;72.11;93299.75;4732431;30;20052;-93
2021/09/02 00:55:10;;;;;;;1.67;1.20;;;;;;;14.64;71.93;93312.84;4772597;29;20050;-92
2021/09/02 00:57:59;;;;;;;1.83;1.15;;;;;;;14.88;72.16;93349.59;4842354;29;20057;-94
2021/09/02 01:01:16;;;;;;;;;;;;;;;;;;;;;
2021/09/02 01:04:03;;;;;;;1.35;1.10;;;;;;;14.92;72.26;93350.53;4831523;29;20044;-94
2021/09/02 01:07:30;;;;;;;1.70;1.17;;;;;;;14.61;72.03;93307.34;4803646;29;20534;-94
2021/09/02 01:11:07;;;;;;;3.70;1.35;;;;;;;14.68;71.89;93323.56;4807000;29;20065;-93
2021/09/02 01:14:15;;;;;;;;;;;;;;;;;;;;;
2021/09/02 01:17:26;;;;;;;1.98;1.33;;;;;;;14.73;72.25;93337.44;4831018;29;20376;-93
2021/09/02 01:20:25;;;;;;;2.63;1.55;;;;;;;14.63;72.37;93321.81;4811613;29;20042;-94
2021/09/02 01:24:07;;;;;;;;;;;;;;;;;;;;;
2021/09/02 01:26:57;;;;;;;1.88;1.20;;;;;;;14.76;72.68;93334.22;4827970;29;20129;-93
2021/09/02 01:29:58;;;;;;;2.08;1.60;;;;;;;14.68;72.79;93313.03;4838865;29;20114;-93
2021/09/02 01:32:56;;;;;;;0.73;0.70;;;;;;;14.76;72.86;93312.38;4825451;29;20506;-93
2021/09/02 01:36:30;;;;;;;;;;;;;;;;;;;;;
2021/09/02 01:39:55;;;;;;;1.27;0.93;;;;;;;14.85;72.45;93321.16;4825389;29;20060;-94
2021/09/02 01:43:03;;;;;;;1.47;1.10;;;;;;;14.89;72.36;93324.78;4812138;29;20114;-93
2021/09/02 01:46:42;;;;;;;;;;;;;;;;;;;;;
2021/09/02 01:49:46;;;;;;;2.45;1.38;;;;;;;14.87;71.76;93307.69;4841115;29;20038;-94
2021/09/02 01:53:13;;;;;;;2.70;1.27;;;;;;;14.93;72.45;93314.44;4826986;29;20510;-94
2021/09/02 01:57:12;;;;;;;;;;;;;;;;;;;;;
2021/09/02 02:36:16;;;;;;;2.70;1.47;;;;;;;14.62;73.54;93316.84;4660278;30;20051;-94
2021/09/02 02:38:57;;;;;;;2.35;1.30;;;;;;;14.73;73.76;93329.53;4729883;30;20062;-92
2021/09/02 02:44:50;;;;;;;1.77;1.27;;;;;;;14.93;73.79;93353.97;4749796;29;20055;-95
2021/09/02 02:47:57;;;;;;;1.98;1.48;;;;;;;14.74;73.48;93333.72;4795697;29;20141;-94
2021/09/02 02:55:08;;;;;;;2.58;1.45;;;;;;;14.68;72.80;93328.84;4818684;29;20046;-94
2021/09/02 02:58:49;;;;;;;2.20;1.45;;;;;;;15.17;72.65;93399.38;4814990;29;20058;-94
2021/09/02 03:01:51;;;;;;;;;;;;;;;;;;;;;
2021/09/02 03:07:48;;;;;;;2.80;1.80;;;;;;;14.84;72.16;93326.72;4819483;29;20061;-94
2021/09/02 03:10:57;;;;;;;2.65;1.75;;;;;;;14.85;72.64;93336.19;4812091;29;20423;-93
2021/09/02 03:13:35;;;;;;;2.40;1.50;;;;;;;15.32;72.51;93389.66;4799727;29;20496;-94
2021/09/02 03:19:55;;;;;;;2.53;1.58;;;;;;;15.05;73.22;93345.59;4831775;29;20046;-94
2021/09/02 03:22:48;;;;;;;2.00;1.17;;;;;;;15.43;73.08;93398.94;4798091;29;20046;-93
2021/09/02 03:25:41;;;;;;;1.48;1.13;;;;;;;15.46;73.19;93400.97;4826628;29;20062;-93
2021/09/02 03:32:53;;;;;;;2.42;1.52;;;;;;;15.33;73.17;93370.91;4828021;29;20503;-94
2021/09/02 03:39:34;;;;;;;;;;;;;;;;;;;;;
2021/09/02 03:42:45;;;;;;;2.10;1.52;;;;;;;15.53;72.81;93395.31;4826216;29;20054;-92
2021/09/02 03:45:33;;;;;;;;;;;;;;;;;;;;;
2021/09/02 03:48:51;;;;;;;2.85;1.70;;;;;;;15.20;72.52;93340.81;4821204;29;19970;-92
2021/09/02 03:52:02;;;;;;;2.90;1.90;;;;;;;15.57;72.16;93394.41;4820573;29;20052;-93
2021/09/02 03:54:59;;;;;;;3.13;1.70;;;;;;;15.44;71.87;93374.09;4812896;29;20500;-94
2021/09/02 03:58:25;;;;;;;4.50;1.90;;;;;;;15.47;71.74;93376.16;4827785;29;20554;-93
2021/09/02 04:01:43;;;;;;;3.97;1.85;;;;;;;15.20;71.61;93335.53;4826715;29;20515;-94
2021/09/02 04:04:57;;;;;;;;;;;;;;;;;;;;;
2021/09/02 04:08:13;;;;;;;;;;;;;;;;;;;;;
2021/09/02 04:11:29;;;;;;;4.05;2.03;;;;;;;15.73;70.57;93405.47;4809436;29;20073;-92
2021/09/02 04:15:01;;;;;;;;;;;;;;;;;;;;;
2021/09/02 04:18:21;;;;;;;1.73;1.33;;;;;;;15.66;71.66;93393.72;4856088;29;20064;-93
2021/09/02 04:21:04;;;;;;;;;;;;;;;;;;;;;
2021/09/02 04:24:03;;;;;;;4.30;2.30;;;;;;;15.36;71.79;93359.75;4856319;29;20041;-94
2021/09/02 04:27:21;;;;;;;;;;;;;;;;;;;;;
2021/09/02 04:30:18;;;;;;;;;;;;;;;;;;;;;
2021/09/02 04:32:54;;;;;;;;;;;;;;;;;;;;;
2021/09/02 04:35:32;;;;;;;2.33;1.60;;;;;;;15.54;71.33;93386.31;4855428;29;20531;-92
2021/09/02 04:38:10;;;;;;;2.75;1.63;;;;;;;15.34;71.48;93363.75;4855151;29;20092;-92
2021/09/02 04:40:46;;;;;;;2.78;1.50;;;;;;;15.59;71.44;93394.91;4846889;29;20049;-92
2021/09/02 04:43:15;;;;;;;2.97;1.70;;;;;;;15.59;71.37;93394.91;4846873;29;20140;-92
2021/09/02 04:46:01;;;;;;;;;;;;;;;;;;;;;
2021/09/02 04:48:32;;;;;;;4.47;2.22;;;;;;;15.67;71.44;93395.28;4840099;29;20116;-91
2021/09/02 04:51:00;;;;;;;3.10;1.45;;;;;;;15.44;71.79;93365.41;4856533;29;20034;-91
2021/09/02 04:53:41;;;;;;;3.13;1.58;;;;;;;15.42;72.18;93363.06;4840018;29;20045;-91
2021/09/02 04:56:20;;;;;;;3.15;1.80;;;;;;;15.38;71.90;93362.09;4841499;29;20101;-92
2021/09/02 04:58:56;;;;;;;2.90;1.83;;;;;;;15.36;71.92;93366.88;4855909;29;20053;-91
2021/09/02 05:01:22;;;;;;;7.68;2.17;;;;;;;15.43;72.33;93372.53;4838627;29;20110;-90
2021/09/02 05:03:57;;;;;;;3.10;1.90;;;;;;;15.44;72.36;93381.22;4856113;29;20041;-91
2021/09/02 05:06:32;;;;;;;4.20;2.10;;;;;;;15.47;72.00;93381.44;4839656;29;20144;-91
2021/09/02 05:09:13;;;;;;;2.03;1.45;;;;;;;15.71;72.41;93412.13;4856907;29;20053;-90
2021/09/02 05:11:49;;;;;;;2.63;1.85;;;;;;;15.72;72.04;93409.22;4854326;29;20048;-91
2021/09/02 05:14:22;;;;;;;2.72;1.60;;;;;;;15.51;72.16;93377.13;4871496;29;20052;-90
2021/09/02 05:17:00;;;;;;;;;;;;;;;;;;;;;
2021/09/02 05:19:49;;;;;;;3.15;1.63;;;;;;;15.51;72.62;93382.38;4857927;29;20056;-91
2021/09/02 05:22:30;;;;;;;3.53;2.10;;;;;;;15.49;73.32;93381.13;4856317;29;20049;-91
2021/09/02 05:25:07;;;;;;;4.10;2.20;;;;;;;15.50;73.56;93380.84;4828152;29;20079;-92
2021/09/02 05:27:53;;;;;;;4.13;1.85;;;;;;;15.75;73.62;93421.81;4856402;29;20052;-91
2021/09/02 05:30:31;;;;;;;4.22;1.98;;;;;;;15.51;73.89;93382.38;4827888;29;20097;-92
2021/09/02 05:40:11;;;;;;;5.05;2.00;;;;;;;15.97;74.21;93436.94;4819266;29;20077;-76
2021/09/02 05:42:37;;;;;;;3.03;1.70;;;;;;;16.02;74.31;93443.97;4819907;29;20046;-77
2021/09/02 05:45:04;;;;;;;3.72;1.45;;;;;;;16.10;74.21;93447.75;4805496;29;20536;-77
2021/09/02 05:47:30;;;;;;;4.40;2.40;;;;;;;16.16;74.64;93443.94;4805793;29;20054;-76
2021/09/02 05:49:55;;;;;;;3.25;1.83;;;;;;;16.24;73.98;93451.16;4805895;29;20137;-79
2021/09/02 05:52:21;;;;;;;4.55;2.00;;;;;;;16.36;73.93;93446.13;4789895;29;20087;-77
2021/09/02 05:54:53;;;;;;;3.28;1.88;;;;;;;16.50;73.34;93447.94;4805864;29;20054;-79
2021/09/02 05:57:19;;;;;;;2.17;1.65;;;;;;;16.64;73.22;93459.28;4821891;29;20050;-78
2021/09/02 05:59:45;;;;;;;4.00;2.20;;;;;;;16.74;72.87;93452.97;4822331;29;20516;-78
2021/09/02 06:02:10;;;;;;;3.42;2.40;;;;;;;16.81;72.68;93456.00;4806727;29;20065;-78
2021/09/02 06:04:36;;;;;;;3.58;2.35;;;;;;;16.89;72.50;93460.56;4807433;29;20038;-78
2021/09/02 06:07:02;;;;;;;4.03;2.55;;;;;;;16.97;72.13;93445.81;4822750;29;20046;-77
2021/09/02 06:09:27;;;;;;;5.07;3.30;;;;;;;17.05;72.07;93463.63;4806840;29;20402;-78
2021/09/02 06:11:53;;;;;;;4.95;3.17;;;;;;;17.14;71.39;93459.16;4806159;29;20116;-78
2021/09/02 06:14:18;;;;;;;5.05;3.28;;;;;;;17.20;70.88;93457.97;4805923;29;20047;-78
2021/09/02 06:16:44;;;;;;;4.43;2.97;;;;;;;17.25;70.81;93457.81;4817250;29;20051;-77
2021/09/02 06:19:09;;;;;;;2.78;1.70;;;;;;;17.29;71.02;93457.97;4824177;29;20045;-77
2021/09/02 06:21:35;;;;;;;3.72;2.60;;;;;;;17.30;71.12;93459.56;4807644;29;20054;-78
2021/09/02 06:24:01;;;;;;;6.38;2.40;;;;;;;17.37;71.01;93467.06;4823952;29;20035;-77
2021/09/02 06:26:26;;;;;;;3.85;2.45;;;;;;;17.40;71.27;93458.50;4824189;29;20146;-77
2021/09/02 06:28:52;;;;;;;5.40;3.13;;;;;;;17.42;71.07;93464.28;4823741;29;20066;-77
2021/09/02 06:31:17;;;;;;;4.25;2.60;;;;;;;17.44;71.20;93462.88;4823783;29;20054;-78
2021/09/02 06:33:43;;;;;;;4.15;2.47;;;;;;;17.49;71.58;93464.59;4823538;29;20073;-78
2021/09/02 06:36:09;;;;;;;4.60;2.80;;;;;;;17.44;71.51;93457.59;4823946;29;20261;-78
2021/09/02 06:38:34;;;;;;;5.70;3.33;;;;;;;17.39;70.38;93464.88;4846796;29;20061;-78
2021/09/02 06:41:00;;;;;;;4.85;2.97;;;;;;;17.27;71.46;93466.25;4853792;29;20042;-78
2021/09/02 06:43:26;;;;;;;5.13;3.33;;;;;;;17.21;70.90;93456.09;4859101;29;20571;-78
2021/09/02 06:45:51;;;;;;;5.78;3.47;;;;;;;17.38;70.90;93463.31;4844011;29;20052;-78
2021/09/02 06:48:17;;;;;;;4.03;2.63;;;;;;;17.51;70.94;93465.09;4844186;29;20056;-78
2021/09/02 06:50:43;;;;;;;5.28;3.10;;;;;;;17.55;70.21;93466.03;4843919;29;20042;-78
2021/09/02 06:53:08;;;;;;;4.68;3.00;;;;;;;17.69;70.14;93458.78;4860586;29;20054;-77
2021/09/02 06:55:34;;;;;;;5.63;3.30;;;;;;;17.85;69.56;93466.34;4828925;29;20042;-78
2021/09/02 06:58:00;;;;;;;5.03;3.17;;;;;;;17.99;69.36;93461.72;4829283;29;20050;-78
2021/09/02 07:00:25;;;;;;;5.57;2.70;;;;;;;18.17;68.77;93459.09;4844884;29;20058;-78
2021/09/02 07:02:51;;;;;;;4.72;2.80;;;;;;;18.34;68.09;93463.63;4832634;29;20049;-78
2021/09/02 07:05:17;;;;;;;3.60;2.60;;;;;;;18.14;67.73;93465.00;4847269;29;20042;-78
2021/09/02 07:07:43;;;;;;;4.10;2.63;;;;;;;18.34;67.47;93469.72;4863308;29;20053;-77
2021/09/02 07:10:10;;;;;;;5.15;3.10;;;;;;;18.47;66.80;93473.31;4863072;29;20048;-77
2021/09/02 07:12:36;;;;;;;3.50;2.42;;;;;;;18.34;68.28;93474.25;4845025;29;20054;-78
2021/09/02 07:15:01;;;;;;;5.20;3.10;;;;;;;18.54;67.79;93470.97;4846964;29;20121;-78
2021/09/02 07:17:27;;;;;;;4.70;2.85;;;;;;;18.72;66.95;93464.59;4847275;29;20057;-76
2021/09/02 07:19:53;;;;;;;6.93;2.78;;;;;;;18.93;66.38;93469.28;4864128;29;20112;-77
2021/09/02 07:22:18;;;;;;;5.72;2.83;;;;;;;19.05;65.16;93458.00;4845871;29;20049;-77
2021/09/02 07:24:44;;;;;;;3.85;2.38;;;;;;;19.38;65.11;93463.56;4846092;29;20052;-77
2021/09/02 07:27:09;;;;;;;4.63;2.65;;;;;;;19.72;64.47;93472.53;4830917;29;20061;-78
2021/09/02 07:29:35;;;;;;;4.57;2.58;;;;;;;20.01;63.95;93468.34;4862541;29;20058;-78
2021/09/02 07:32:01;;;;;;;3.70;2.40;;;;;;;20.24;62.40;93460.88;4830420;29;20060;-77
2021/09/02 07:34:27;;;;;;;5.13;2.90;;;;;;;20.39;59.99;93447.78;4843106;29;20080;-77
2021/09/02 07:36:52;;;;;;;4.65;2.75;;;;;;;21.04;57.48;93452.75;4845574;29;20120;-77
2021/09/02 07:39:18;;;;;;;3.78;2.38;;;;;;;21.61;56.01;93457.34;4813523;29;20484;-78
2021/09/02 07:41:43;;;;;;;5.63;2.92;;;;;;;21.77;52.74;93452.19;4857451;29;20054;-77
2021/09/02 07:44:09;;;;;;;3.30;2.13;;;;;;;22.26;52.83;93450.63;4844203;29;20054;-78
2021/09/02 07:46:35;;;;;;;4.38;2.60;;;;;;;21.48;53.71;93452.34;4812076;29;20057;-78
2021/09/02 07:49:00;;;;;;;5.07;2.63;;;;;;;21.94;53.84;93447.72;4827482;29;20050;-77
2021/09/02 07:51:26;;;;;;;3.45;1.85;;;;;;;22.07;55.78;93454.63;4843545;29;20552;-77
2021/09/02 07:53:52;;;;;;;3.17;2.00;;;;;;;21.70;53.59;93449.25;4852708;29;20622;-77
2021/09/02 07:56:18;;;;;;;3.55;1.95;;;;;;;21.98;52.41;93453.94;4862172;29;20029;-78
2021/09/02 07:58:44;;;;;;;2.67;1.30;;;;;;;21.75;54.68;93451.72;4862118;29;20080;-77
2021/09/02 08:01:13;;;;;;;4.97;2.00;;;;;;;21.41;54.02;93448.34;4844965;29;20482;-77
2021/09/02 08:03:40;;;;;;;1.63;1.10;;;;;;;21.44;55.79;93460.22;4829081;29;20069;-78
2021/09/02 08:06:06;;;;;;;3.03;1.45;;;;;;;20.56;59.61;93460.22;4861550;29;20048;-76
2021/09/02 08:08:32;;;;;;;2.60;1.70;;;;;;;20.55;60.33;93468.47;4845011;29;20136;-78
2021/09/02 08:10:59;;;;;;;5.70;2.10;;;;;;;20.47;59.99;93470.09;4844973;29;20046;-78
2021/09/02 08:13:25;;;;;;;1.98;1.23;;;;;;;20.76;61.50;93471.16;4860757;29;20053;-77
2021/09/02 08:15:51;;;;;;;2.15;1.55;;;;;;;21.31;55.30;93467.38;4845156;29;20529;-78
2021/09/02 08:18:17;;;;;;;2.97;1.90;;;;;;;21.21;57.08;93470.47;4845668;29;20048;-78
2021/09/02 08:20:43;;;;;;;3.67;2.03;;;;;;;20.92;55.60;93474.03;4846080;29;20046;-77
2021/09/02 08:23:09;;;;;;;3.10;1.95;;;;;;;20.49;56.52;93477.75;4860121;29;20049;-77
2021/09/02 08:25:35;;;;;;;2.75;1.90;;;;;;;20.36;59.77;93468.94;4861172;29;20057;-78
2021/09/02 08:28:00;;;;;;;3.78;2.08;;;;;;;20.87;58.57;93472.31;4842830;29;20042;-77
2021/09/02 08:30:28;;;;;;;3.63;2.13;;;;;;;20.62;60.55;93470.66;4825246;29;20046;-77
2021/09/02 08:32:54;;;;;;;2.72;1.90;;;;;;;20.30;60.78;93471.00;4843327;29;20080;-77
2021/09/02 08:35:27;;;;;;;2.90;1.83;;;;;;;20.62;60.61;93481.28;4843099;29;20053;-77
2021/09/02 08:37:57;;;;;;;2.10;1.40;;;;;;;20.76;57.63;93473.81;4848183;29;20066;-77
2021/09/02 08:40:26;;;;;;;2.47;1.67;;;;;;;20.63;58.41;93474.88;4829458;29;20042;-78
2021/09/02 08:42:54;;;;;;;3.42;1.63;;;;;;;21.21;58.42;93473.13;4848444;29;20069;-77
2021/09/02 08:45:21;;;;;;;4.70;1.85;;;;;;;21.32;55.92;93468.94;4842846;29;20077;-77
2021/09/02 08:47:49;;;;;;;1.17;1.02;;;;;;;21.50;55.72;93482.09;4842941;29;20038;-77
2021/09/02 08:50:17;;;;;;;0.73;0.73;;;;;;;20.93;55.51;93480.88;4842469;29;20062;-77
2021/09/02 08:52:43;;;;;;;2.63;1.52;;;;;;;21.20;54.10;93474.22;4832775;29;20412;-78
2021/09/02 08:55:09;;;;;;;3.25;1.40;;;;;;;20.88;56.64;93483.75;4842859;29;20137;-76
2021/09/02 08:57:35;;;;;;;2.60;1.60;;;;;;;20.72;56.40;93480.91;4829188;29;20077;-77
2021/09/02 09:00:01;;;;;;;1.75;1.25;;;;;;;20.23;60.64;93483.25;4830432;29;20069;-77
2021/09/02 09:02:28;;;;;;;2.88;2.10;;;;;;;20.47;58.38;93485.28;4846595;29;20052;-77
2021/09/02 09:05:08;;;;;;;2.80;1.70;;;;;;;20.15;58.56;93488.28;4841988;29;20153;-76
2021/09/02 09:07:42;;;;;;;2.33;1.50;;;;;;;20.24;54.98;93479.47;4826198;29;20146;-78
2021/09/02 09:10:16;;;;;;;1.90;1.17;;;;;;;20.14;56.08;93481.41;4851557;29;20499;-77
2021/09/02 09:12:44;;;;;;;2.25;1.58;;;;;;;19.99;58.18;93479.28;4844279;29;20056;-76
2021/09/02 09:15:19;;;;;;;1.55;1.00;;;;;;;19.93;60.55;93475.28;4860402;29;20042;-76
2021/09/02 09:17:46;;;;;;;2.35;1.65;;;;;;;19.80;59.65;93484.25;4843905;29;20053;-77
2021/09/02 09:20:12;;;;;;;2.33;1.55;;;;;;;19.93;60.61;93483.25;4858190;29;20544;-78
2021/09/02 09:22:38;;;;;;;1.75;1.20;;;;;;;19.74;59.79;93481.75;4860554;29;20056;-76
2021/09/02 09:25:06;;;;;;;2.38;1.60;;;;;;;19.79;60.00;93472.03;4843949;29;20084;-78
2021/09/02 09:27:31;;;;;;;1.10;0.80;;;;;;;19.99;58.17;93476.63;4844129;29;20046;-78
2021/09/02 09:30:17;;;;;;;1.75;1.08;;;;;;;20.00;59.25;93467.56;4850370;29;20424;-78
2021/09/02 09:32:47;;;;;;;3.55;1.58;;;;;;;20.03;59.12;93476.78;4826857;29;20042;-77
2021/09/02 09:35:18;;;;;;;1.90;1.17;;;;;;;20.39;58.04;93473.59;4842931;29;20045;-78
2021/09/02 09:37:45;;;;;;;3.63;1.58;;;;;;;20.96;56.62;93475.72;4858557;29;20057;-78
2021/09/02 09:40:31;;;;;;;1.05;0.75;;;;;;;21.08;54.64;93484.84;4860205;29;20102;-77
2021/09/02 09:43:15;;;;;;;2.78;1.52;;;;;;;21.19;54.20;93472.69;4828364;29;20042;-78
2021/09/02 09:45:48;;;;;;;2.45;1.40;;;;;;;21.61;55.46;93470.66;4844403;29;20049;-77
2021/09/02 09:48:19;;;;;;;1.45;1.20;;;;;;;21.64;56.36;93471.91;4858941;29;20088;-78
2021/09/02 09:51:03;;;;;;;1.00;0.90;;;;;;;21.72;54.73;93470.25;4826018;29;20082;-77
2021/09/02 09:53:28;;;;;;;3.65;1.25;;;;;;;22.12;53.08;93470.38;4842236;29;20068;-77
2021/09/02 09:55:55;;;;;;;1.73;1.15;;;;;;;21.88;52.90;93463.16;4847068;29;20054;-77
2021/09/02 09:58:22;;;;;;;3.72;1.50;;;;;;;21.70;52.80;93462.59;4861966;29;20084;-79
2021/09/02 10:00:54;;;;;;;2.35;1.30;;;;;;;21.61;55.54;93459.25;4847483;29;20044;-79
2021/09/02 10:03:21;;;;;;;1.80;1.17;;;;;;;21.71;53.67;93460.72;4847952;29;20076;-78
2021/09/02 10:05:48;;;;;;;1.95;1.25;;;;;;;21.71;52.85;93466.81;4847666;29;20102;-78
2021/09/02 10:08:15;;;;;;;2.35;1.60;;;;;;;21.89;52.80;93455.94;4843724;29;20049;-79
2021/09/02 10:10:41;;;;;;;1.35;1.08;;;;;;;21.77;53.01;93462.84;4809913;29;20041;-79
2021/09/02 10:13:08;;;;;;;1.90;1.25;;;;;;;21.29;53.93;93461.59;4825860;29;20060;-79
2021/09/02 10:15:34;;;;;;;2.42;1.60;;;;;;;21.35;54.66;93457.63;4825399;29;20046;-78
2021/09/02 10:18:00;;;;;;;4.32;1.92;;;;;;;21.77;54.75;93465.50;4841361;29;20402;-78
2021/09/02 10:20:28;;;;;;;2.17;1.52;;;;;;;21.67;53.65;93459.81;4848373;29;20128;-78
2021/09/02 10:23:20;;;;;;;3.40;2.13;;;;;;;21.75;54.64;93462.38;4861480;29;20049;-78
2021/09/02 10:25:46;;;;;;;1.13;0.98;;;;;;;21.24;54.65;93453.06;4857999;29;20029;-78
2021/09/02 10:28:23;;;;;;;2.75;1.75;;;;;;;20.74;56.06;93460.09;4831019;29;20053;-79
2021/09/02 10:30:51;;;;;;;6.57;1.70;;;;;;;20.75;55.73;93454.41;4854909;29;20044;-78
2021/09/02 10:33:37;;;;;;;2.88;1.73;;;;;;;20.91;55.02;93461.81;4862658;29;20064;-78
2021/09/02 10:36:25;;;;;;;1.48;1.10;;;;;;;20.42;56.41;93446.34;4845280;29;20049;-78
2021/09/02 10:38:57;;;;;;;2.95;1.65;;;;;;;20.07;57.99;93451.91;4824877;29;20536;-79
2021/09/02 10:42:02;;;;;;;2.78;1.75;;;;;;;20.23;57.08;93459.31;4823952;29;20532;-78
2021/09/02 10:44:48;;;;;;;3.17;1.88;;;;;;;20.95;55.61;93458.16;4826146;29;20054;-79
2021/09/02 10:47:18;;;;;;;3.78;1.83;;;;;;;21.34;54.35;93445.41;4825338;29;20050;-78
2021/09/02 10:50:00;;;;;;;1.80;1.25;;;;;;;21.69;53.97;93444.28;4822659;29;20074;-78
2021/09/02 10:52:28;;;;;;;1.23;0.90;;;;;;;20.91;53.56;93437.84;4827448;29;20054;-78
2021/09/02 10:54:54;;;;;;;2.47;1.63;;;;;;;21.07;54.19;93432.69;4828582;29;20042;-79
2021/09/02 10:57:19;;;;;;;2.17;1.55;;;;;;;21.49;53.66;93443.25;4828377;29;20072;-79
2021/09/02 10:59:49;;;;;;;1.77;1.20;;;;;;;21.40;53.23;93446.78;4824620;29;20072;-77
2021/09/02 11:02:17;;;;;;;2.55;1.52;;;;;;;21.75;52.07;93456.25;4810274;29;20111;-80
2021/09/02 11:04:56;;;;;;;3.05;1.83;;;;;;;21.56;51.46;93438.16;4827249;29;20071;-79
2021/09/02 11:07:38;;;;;;;3.50;1.80;;;;;;;22.03;51.08;93449.16;4812731;29;20061;-79
2021/09/02 11:10:09;;;;;;;2.72;1.65;;;;;;;21.73;51.33;93448.63;4820158;29;20066;-78
2021/09/02 11:12:35;;;;;;;4.30;1.40;;;;;;;21.49;51.87;93451.25;4828367;29;20042;-78
2021/09/02 11:15:01;;;;;;;2.45;1.60;;;;;;;21.74;50.44;93444.81;4829737;29;20111;-78
2021/09/02 11:17:26;;;;;;;1.90;1.25;;;;;;;22.03;49.14;93451.81;4829615;29;20540;-78
2021/09/02 11:19:52;;;;;;;2.25;1.40;;;;;;;22.36;48.88;93447.47;4827040;29;20365;-79
2021/09/02 11:22:18;;;;;;;2.13;1.35;;;;;;;22.45;48.96;93440.16;4810729;29;20068;-78
2021/09/02 11:24:49;;;;;;;2.28;1.40;;;;;;;21.83;49.78;93436.72;4818901;29;20133;-78
2021/09/02 11:27:29;;;;;;;1.77;1.20;;;;;;;22.16;48.76;93435.84;4828950;29;20479;-79
2021/09/02 11:30:22;;;;;;;1.77;1.35;;;;;;;22.28;48.78;93440.41;4826557;29;20082;-78
2021/09/02 11:33:09;;;;;;;2.95;1.52;;;;;;;22.42;49.46;93440.81;4825701;29;20058;-79
2021/09/02 11:35:36;;;;;;;2.80;1.95;;;;;;;22.86;47.03;93439.00;4810198;29;20447;-79
2021/09/02 11:38:03;;;;;;;2.35;1.10;;;;;;;22.34;48.17;93425.72;4831299;29;20053;-78
2021/09/02 11:40:32;;;;;;;5.18;1.13;;;;;;;22.23;49.37;93418.19;4860295;29;20536;-77
2021/09/02 11:42:59;;;;;;;2.30;1.20;;;;;;;22.32;47.91;93425.28;4860749;29;20461;-77
2021/09/02 11:45:28;;;;;;;1.48;1.10;;;;;;;21.94;48.33;93429.84;4860709;29;20050;-77
2021/09/02 11:47:54;;;;;;;2.17;1.45;;;;;;;22.27;48.00;93433.50;4844006;29;20040;-77
2021/09/02 11:50:21;;;;;;;2.30;1.50;;;;;;;21.46;49.44;93435.91;4859078;29;20041;-77
2021/09/02 11:52:50;;;;;;;2.10;1.38;;;;;;;22.15;49.01;93428.94;4860786;29;20037;-77
2021/09/02 11:55:21;;;;;;;2.88;1.85;;;;;;;22.27;47.95;93433.50;4860176;29;20078;-76
2021/09/02 11:57:51;;;;;;;1.98;1.20;;;;;;;22.03;49.12;93432.41;4854012;29;20053;-76
2021/09/02 12:00:17;;;;;;;1.27;0.90;;;;;;;21.64;49.15;93426.63;4846903;29;20049;-76
2021/09/02 12:02:48;;;;;;;2.33;1.25;;;;;;;21.87;49.03;93418.97;4853624;29;20484;-77
2021/09/02 12:05:15;;;;;;;3.22;1.50;;;;;;;21.76;48.71;93426.63;4843596;29;20042;-76
2021/09/02 12:07:41;;;;;;;1.38;0.93;;;;;;;21.46;50.39;93418.06;4852140;29;20081;-77
2021/09/02 12:10:07;;;;;;;3.47;1.60;;;;;;;21.37;50.42;93422.69;4855196;29;20129;-76
2021/09/02 12:12:32;;;;;;;3.75;1.85;;;;;;;21.33;50.42;93421.78;4841684;29;20064;-76
2021/09/02 12:14:59;;;;;;;1.80;1.17;;;;;;;21.44;50.40;93414.19;4848823;29;20520;-77
2021/09/02 12:17:32;;;;;;;3.03;1.55;;;;;;;21.40;50.83;93411.38;4860282;29;20049;-77
2021/09/02 12:20:00;;;;;;;1.55;0.77;;;;;;;21.03;51.85;93411.28;4859892;29;20128;-76
2021/09/02 12:22:33;;;;;;;2.28;1.55;;;;;;;21.30;51.24;93409.91;4860616;29;20089;-77
2021/09/02 12:25:15;;;;;;;2.40;1.45;;;;;;;21.63;50.51;93406.41;4861348;29;20152;-78
2021/09/02 12:27:43;;;;;;;2.38;1.42;;;;;;;21.55;50.20;93402.75;4861155;29;20049;-78
2021/09/02 12:30:09;;;;;;;2.10;1.48;;;;;;;22.34;48.96;93396.38;4860962;29;20041;-78
2021/09/02 12:32:34;;;;;;;2.25;1.58;;;;;;;22.54;49.03;93390.09;4861272;29;20055;-78
2021/09/02 12:35:14;;;;;;;2.78;1.67;;;;;;;23.16;47.05;93395.94;4861827;29;20045;-78
2021/09/02 12:37:40;;;;;;;1.75;1.40;;;;;;;22.53;48.84;93388.53;4860114;29;20050;-78
2021/09/02 12:40:12;;;;;;;2.42;1.52;;;;;;;22.53;47.92;93385.09;4861388;29;20412;-78
2021/09/02 12:42:38;;;;;;;;;;;;;;;22.33;49.15;93381.47;4862416;29;20136;-78
2021/09/02 12:45:07;;;;;;;2.55;1.60;;;;;;;21.73;50.23;93390.00;4861883;29;19958;-78
2021/09/02 12:47:34;;;;;;;3.00;1.52;;;;;;;21.68;50.77;93379.53;4845943;29;20139;-77
2021/09/02 12:50:00;;;;;;;2.33;1.60;;;;;;;21.53;50.40;93385.56;4862555;29;20052;-78
2021/09/02 12:52:27;;;;;;;2.38;1.65;;;;;;;21.41;50.37;93373.78;4846217;29;20045;-77
2021/09/02 12:55:19;;;;;;;3.10;1.38;;;;;;;21.57;50.14;93375.75;4863303;29;20045;-77
2021/09/02 12:57:45;;;;;;;1.98;1.30;;;;;;;21.69;50.07;93373.13;4862394;29;20060;-78
2021/09/02 13:00:13;;;;;;;1.27;1.05;;;;;;;21.85;49.59;93365.22;4862302;29;20101;-77
2021/09/02 13:02:39;;;;;;;4.45;1.70;;;;;;;22.43;48.40;93359.69;4861230;29;20136;-77
2021/09/02 13:05:06;;;;;;;3.47;1.48;;;;;;;22.23;49.44;93353.41;4861791;29;20053;-77
2021/09/02 13:07:32;;;;;;;1.80;1.38;;;;;;;22.49;48.73;93354.88;4861877;29;20053;-77
2021/09/02 13:09:59;;;;;;;2.40;1.40;;;;;;;22.73;48.29;93346.75;4861851;29;20124;-77
2021/09/02 13:12:25;;;;;;;3.13;1.70;;;;;;;22.57;47.77;93340.63;4861143;29;20080;-77
2021/09/02 13:14:52;;;;;;;2.40;1.38;;;;;;;22.56;47.15;93339.06;4860972;29;20059;-77
2021/09/02 13:17:18;;;;;;;2.92;1.65;;;;;;;22.38;48.23;93351.91;4845524;29;20067;-77
2021/09/02 13:19:43;;;;;;;2.13;1.40;;;;;;;22.54;48.73;93342.06;4845635;29;20046;-77
2021/09/02 13:22:09;;;;;;;2.20;1.40;;;;;;;22.34;48.14;93345.72;4862258;29;20093;-76
2021/09/02 13:24:35;;;;;;;3.22;1.50;;;;;;;22.53;48.31;93342.41;4862202;29;20520;-77
2021/09/02 13:27:00;;;;;;;1.02;0.90;;;;;;;22.69;46.88;93337.09;4861746;29;20041;-77
2021/09/02 13:29:26;;;;;;;1.73;1.10;;;;;;;22.60;47.64;93322.03;4861422;29;20060;-77
2021/09/02 13:31:52;;;;;;;1.55;1.05;;;;;;;22.40;46.70;93325.66;4860405;29;20094;-77
2021/09/02 13:34:18;;;;;;;2.40;1.30;;;;;;;22.43;48.60;93327.69;4861367;29;20113;-77
2021/09/02 13:36:43;;;;;;;3.55;1.60;;;;;;;22.27;47.67;93324.16;4845757;29;20037;-77
2021/09/02 13:39:09;;;;;;;2.20;1.40;;;;;;;22.50;47.74;93329.75;4858163;29;20061;-77
2021/09/02 13:41:36;;;;;;;1.67;1.30;;;;;;;22.85;46.84;93325.34;4860302;29;20053;-76
2021/09/02 13:44:02;;;;;;;2.90;1.38;;;;;;;22.90;47.56;93326.19;4861736;29;20060;-77
2021/09/02 13:46:28;;;;;;;2.03;1.45;;;;;;;22.89;47.11;93320.09;4843379;29;20454;-78
2021/09/02 13:48:54;;;;;;;3.50;1.48;;;;;;;22.85;46.79;93324.56;4861289;29;20098;-78
2021/09/02 13:51:20;;;;;;;2.33;1.42;;;;;;;22.65;46.88;93323.66;4860098;29;20053;-78
2021/09/02 13:53:46;;;;;;;1.20;0.98;;;;;;;22.76;47.25;93326.63;4860593;29;20053;-77
2021/09/02 13:56:12;;;;;;;1.17;0.98;;;;;;;22.33;47.61;93318.25;4861249;29;20085;-77
2021/09/02 13:58:37;;;;;;;2.67;1.63;;;;;;;22.79;47.04;93315.28;4861567;29;20045;-77
2021/09/02 14:01:22;;;;;;;2.05;1.33;;;;;;;22.92;46.99;93314.09;4863080;29;20045;-77
2021/09/02 14:03:47;;;;;;;2.13;1.40;;;;;;;22.95;46.69;93313.41;4866113;29;20045;-78
2021/09/02 14:06:13;;;;;;;1.65;1.17;;;;;;;22.34;46.64;93311.81;4866865;29;20097;-78
2021/09/02 14:08:38;;;;;;;2.50;1.50;;;;;;;22.36;48.00;93306.13;4866692;29;20404;-77
2021/09/02 14:11:04;;;;;;;1.88;1.25;;;;;;;22.50;46.64;93298.53;4849739;29;20086;-78
2021/09/02 14:13:30;;;;;;;2.08;1.30;;;;;;;22.50;47.43;93293.19;4846353;29;20046;-78
2021/09/02 14:15:56;;;;;;;2.28;1.40;;;;;;;22.88;48.21;93297.19;4831709;29;20473;-78